createdAt,value
2022-09-16T00:02:05.122Z,20.43
2022-09-16T00:04:32.294Z,20.37
2022-09-16T00:06:59.143Z,20.33
2022-09-16T00:09:26.503Z,20.30
2022-09-16T00:11:53.827Z,20.28
2022-09-16T00:14:20.608Z,20.29
2022-09-16T00:16:47.560Z,20.31
2022-09-16T00:19:14.408Z,20.33
2022-09-16T00:21:41.254Z,20.37
2022-09-16T00:24:10.563Z,20.42
2022-09-16T00:26:38.806Z,20.46
2022-09-16T00:29:05.591Z,20.50
2022-09-16T00:31:32.488Z,20.54
2022-09-16T00:33:59.362Z,20.60
2022-09-16T00:36:26.236Z,20.64
2022-09-16T00:38:55.262Z,20.70
2022-09-16T00:41:27.618Z,20.75
2022-09-16T00:43:54.458Z,20.79
2022-09-16T00:46:33.824Z,20.83
2022-09-16T00:49:03.221Z,20.90
2022-09-16T00:51:30.771Z,20.95
2022-09-16T00:54:03.456Z,20.99
2022-09-16T00:56:31.684Z,21.03
2022-09-16T00:59:08.877Z,21.08
2022-09-16T01:01:36.316Z,21.15
2022-09-16T01:04:09.289Z,21.20
2022-09-16T01:06:37.588Z,21.25
2022-09-16T01:09:04.691Z,21.30
2022-09-16T01:11:32.152Z,21.36
2022-09-16T01:14:19.680Z,21.41
2022-09-16T01:16:58.373Z,21.45
2022-09-16T01:19:26.590Z,21.50
2022-09-16T01:22:09.201Z,21.55
2022-09-16T01:24:48.850Z,21.60
2022-09-16T01:27:48.672Z,21.64
2022-09-16T01:30:39.681Z,21.68
2022-09-16T01:33:12.834Z,21.73
2022-09-16T01:35:45.278Z,21.69
2022-09-16T01:38:23.468Z,21.66
2022-09-16T01:41:03.933Z,21.63
2022-09-16T01:43:54.969Z,21.60
2022-09-16T01:46:40.275Z,21.53
2022-09-16T01:49:40.870Z,21.46
2022-09-16T01:52:07.615Z,21.42
2022-09-16T01:54:40.098Z,21.37
2022-09-16T01:57:11.856Z,21.35
2022-09-16T01:59:43.322Z,21.36
2022-09-16T02:02:16.959Z,21.38
2022-09-16T02:04:50.239Z,21.43
2022-09-16T02:07:18.298Z,21.49
2022-09-16T02:09:48.946Z,21.53
2022-09-16T02:12:21.306Z,21.57
2022-09-16T02:14:48.559Z,21.59
2022-09-16T02:17:16.734Z,21.60
2022-09-16T02:19:49.114Z,21.59
2022-09-16T02:22:19.364Z,21.59
2022-09-16T02:24:47.109Z,21.61
2022-09-16T02:27:16.983Z,21.63
2022-09-16T02:29:47.076Z,21.65
2022-09-16T02:32:13.817Z,21.66
2022-09-16T02:34:43.321Z,21.63
2022-09-16T02:37:22.788Z,21.62
2022-09-16T02:39:50.800Z,21.58
2022-09-16T02:42:17.599Z,21.54
2022-09-16T02:44:44.824Z,21.55
2022-09-16T02:47:28.151Z,21.57
2022-09-16T02:49:56.470Z,21.58
2022-09-16T02:52:49.699Z,21.58
2022-09-16T02:55:25.140Z,21.57
2022-09-16T02:57:51.982Z,21.55
2022-09-16T03:00:20.678Z,21.52
2022-09-16T03:02:48.064Z,21.50
2022-09-16T03:05:14.977Z,21.48
2022-09-16T03:07:41.822Z,21.48
2022-09-16T03:10:15.383Z,21.48
2022-09-16T03:12:46.262Z,21.49
2022-09-16T03:15:32.257Z,21.50
2022-09-16T03:18:05.773Z,21.48
2022-09-16T03:20:54.523Z,21.46
2022-09-16T03:23:47.787Z,21.46
2022-09-16T03:26:30.509Z,21.46
2022-09-16T03:29:26.133Z,21.46
2022-09-16T03:32:32.932Z,21.47
2022-09-16T03:35:07.033Z,21.49
2022-09-16T03:37:35.652Z,21.48
2022-09-16T03:40:05.932Z,21.49
2022-09-16T03:42:32.715Z,21.52
2022-09-16T03:44:59.749Z,21.59
2022-09-16T03:47:26.496Z,21.65
2022-09-16T03:49:53.246Z,21.70
2022-09-16T03:52:20.912Z,21.73
2022-09-16T03:54:48.248Z,21.80
2022-09-16T03:57:15.027Z,21.84
2022-09-16T03:59:42.285Z,21.87
2022-09-16T04:02:09.130Z,21.89
2022-09-16T04:04:36.536Z,21.86
2022-09-16T04:07:03.650Z,21.87
2022-09-16T04:09:30.901Z,21.87
2022-09-16T04:11:57.652Z,21.86
2022-09-16T04:14:24.502Z,21.87
2022-09-16T04:16:51.866Z,21.89
2022-09-16T04:19:18.709Z,21.91
2022-09-16T04:21:45.666Z,21.94
2022-09-16T04:24:13.667Z,21.97
2022-09-16T04:26:41.607Z,22.02
2022-09-16T04:29:09.387Z,22.07
2022-09-16T04:31:36.222Z,22.13
2022-09-16T04:34:03.686Z,22.19
2022-09-16T04:36:30.625Z,22.24
2022-09-16T04:38:57.983Z,22.31
2022-09-16T04:41:25.952Z,22.37
2022-09-16T04:43:54.229Z,22.43
2022-09-16T04:46:21.136Z,22.50
2022-09-16T04:48:49.008Z,22.58
2022-09-16T04:51:16.116Z,22.65
2022-09-16T04:53:46.477Z,22.75
2022-09-16T04:56:19.087Z,22.82
2022-09-16T04:58:48.106Z,22.88
2022-09-16T05:01:16.630Z,22.93
2022-09-16T05:03:44.903Z,22.97
2022-09-16T05:06:18.353Z,23.03
2022-09-16T05:08:48.860Z,23.09
2022-09-16T05:11:19.500Z,23.14
2022-09-16T05:13:46.333Z,23.23
2022-09-16T05:16:15.167Z,23.32
2022-09-16T05:18:43.088Z,23.42
2022-09-16T05:21:12.742Z,23.53
2022-09-16T05:23:45.944Z,23.64
2022-09-16T05:26:24.974Z,23.78
2022-09-16T05:28:52.063Z,23.90
2022-09-16T05:31:25.644Z,24.00
2022-09-16T05:34:14.421Z,24.12
2022-09-16T05:36:43.847Z,24.24
2022-09-16T05:39:23.641Z,24.32
2022-09-16T05:41:53.168Z,24.41
2022-09-16T05:44:19.911Z,24.46
2022-09-16T05:46:47.367Z,24.47
2022-09-16T05:49:21.217Z,24.46
2022-09-16T05:51:48.846Z,24.43
2022-09-16T05:54:18.389Z,24.41
2022-09-16T05:56:45.802Z,24.41
2022-09-16T05:59:13.554Z,24.43
2022-09-16T06:01:41.273Z,24.47
2022-09-16T06:04:11.959Z,24.54
2022-09-16T06:06:45.880Z,24.64
2022-09-16T06:09:20.102Z,24.82
2022-09-16T06:11:49.303Z,25.03
2022-09-16T06:14:17.135Z,25.24
2022-09-16T06:16:44.182Z,25.44
2022-09-16T06:19:13.607Z,25.60
2022-09-16T06:21:41.145Z,25.81
2022-09-16T06:24:10.766Z,26.02
2022-09-16T06:26:39.461Z,26.20
2022-09-16T06:29:07.099Z,26.39
2022-09-16T06:31:34.140Z,26.59
2022-09-16T06:34:01.089Z,26.82
2022-09-16T06:36:29.770Z,26.94
2022-09-16T06:38:57.003Z,26.97
2022-09-16T06:41:24.273Z,27.02
2022-09-16T06:43:52.139Z,27.08
2022-09-16T06:46:23.857Z,27.13
2022-09-16T06:48:52.697Z,27.13
2022-09-16T06:54:23.831Z,27.07
2022-09-16T06:56:51.387Z,27.04
2022-09-16T06:59:18.374Z,27.01
2022-09-16T07:01:45.512Z,27.00
2022-09-16T07:04:13.667Z,27.00
2022-09-16T07:07:10.940Z,26.99
2022-09-16T07:09:28.023Z,27.02
2022-09-16T07:11:55.589Z,27.09
2022-09-16T07:14:23.144Z,27.18
2022-09-16T07:16:50.260Z,27.26
2022-09-16T07:19:17.133Z,27.38
2022-09-16T07:21:44.146Z,27.47
2022-09-16T07:24:12.877Z,27.51
2022-09-16T07:26:40.684Z,27.58
2022-09-16T07:29:11.371Z,27.67
2022-09-16T07:31:38.816Z,27.72
2022-09-16T07:34:06.950Z,27.75
2022-09-16T07:36:36.157Z,27.79
2022-09-16T07:39:04.051Z,27.81
2022-09-16T07:41:34.277Z,27.85
2022-09-16T07:44:02.078Z,27.91
2022-09-16T07:46:30.651Z,27.98
2022-09-16T07:48:58.482Z,28.05
2022-09-16T07:51:26.131Z,28.14
2022-09-16T07:53:55.349Z,28.24
2022-09-16T07:56:25.510Z,28.32
2022-09-16T07:58:53.840Z,28.32
2022-09-16T08:01:20.832Z,28.28
2022-09-16T08:03:47.985Z,28.24
2022-09-16T08:06:22.384Z,28.20
2022-09-16T08:08:55.543Z,28.13
2022-09-16T08:11:22.589Z,28.03
2022-09-16T08:13:49.841Z,27.94
2022-09-16T08:16:19.301Z,27.88
2022-09-16T08:18:48.106Z,27.85
2022-09-16T08:21:16.817Z,27.83
2022-09-16T08:23:47.044Z,27.81
2022-09-16T08:26:16.237Z,27.81
2022-09-16T08:29:07.332Z,27.81
2022-09-16T08:31:32.271Z,27.83
2022-09-16T08:33:59.704Z,27.87
2022-09-16T08:36:29.151Z,27.94
2022-09-16T08:38:56.953Z,28.04
2022-09-16T08:41:47.677Z,28.13
2022-09-16T08:44:33.950Z,28.18
2022-09-16T08:47:02.559Z,28.24
2022-09-16T08:49:43.957Z,28.33
2022-09-16T08:52:23.405Z,28.46
2022-09-16T08:54:53.674Z,28.62
2022-09-16T08:57:22.867Z,28.73
2022-09-16T08:59:55.709Z,28.81
2022-09-16T09:02:38.368Z,28.84
2022-09-16T09:05:27.390Z,28.85
2022-09-16T09:07:55.058Z,28.86
2022-09-16T09:10:28.665Z,28.90
2022-09-16T09:13:14.102Z,28.92
2022-09-16T09:15:52.467Z,28.87
2022-09-16T09:18:39.287Z,28.78
2022-09-16T09:21:27.502Z,28.71
2022-09-16T09:24:24.891Z,28.68
2022-09-16T09:26:53.175Z,28.70
2022-09-16T09:29:38.858Z,28.72
2022-09-16T09:32:49.031Z,28.73
2022-09-16T09:35:41.665Z,28.72
2022-09-16T09:38:17.829Z,28.71
2022-09-16T09:40:56.762Z,28.69
2022-09-16T09:43:41.422Z,28.67
2022-09-16T09:46:26.600Z,28.64
2022-09-16T09:49:15.563Z,28.62
2022-09-16T09:52:10.772Z,28.62
2022-09-16T09:54:39.395Z,28.61
2022-09-16T09:57:37.743Z,28.66
2022-09-16T10:00:15.341Z,28.81
2022-09-16T10:02:49.658Z,29.03
2022-09-16T10:05:25.519Z,29.28
2022-09-16T10:07:53.423Z,29.51
2022-09-16T10:10:24.845Z,29.69
2022-09-16T10:12:51.997Z,29.75
2022-09-16T10:15:45.058Z,29.77
2022-09-16T10:18:27.265Z,29.76
2022-09-16T10:21:07.173Z,29.67
2022-09-16T10:23:34.580Z,29.57
2022-09-16T10:26:19.637Z,29.52
2022-09-16T10:29:02.070Z,29.50
2022-09-16T10:31:35.848Z,29.51
2022-09-16T10:34:03.942Z,29.59
2022-09-16T10:36:34.660Z,29.81
2022-09-16T10:39:04.655Z,30.09
2022-09-16T10:41:34.409Z,30.42
2022-09-16T10:44:22.960Z,30.82
2022-09-16T10:47:01.173Z,31.25
2022-09-16T10:49:55.264Z,31.61
2022-09-16T10:52:24.908Z,31.90
2022-09-16T10:54:52.434Z,32.16
2022-09-16T10:57:25.522Z,32.34
2022-09-16T11:00:01.072Z,32.57
2022-09-16T11:02:55.565Z,32.82
2022-09-16T11:05:51.139Z,33.03
2022-09-16T11:08:43.540Z,33.18
2022-09-16T11:11:20.432Z,33.21
2022-09-16T11:14:06.194Z,33.23
2022-09-16T11:16:49.114Z,33.27
2022-09-16T11:19:28.650Z,33.34
2022-09-16T11:22:05.766Z,33.30
2022-09-16T11:25:08.316Z,33.22
2022-09-16T11:27:53.895Z,33.01
2022-09-16T11:30:22.595Z,32.83
2022-09-16T11:33:27.990Z,32.78
2022-09-16T11:36:30.609Z,32.84
2022-09-16T11:39:16.294Z,33.01
2022-09-16T11:42:01.568Z,33.10
2022-09-16T11:45:07.473Z,33.06
2022-09-16T11:47:48.911Z,32.76
2022-09-16T11:50:49.855Z,32.51
2022-09-16T11:53:41.668Z,32.35
2022-09-16T11:56:22.660Z,32.37
2022-09-16T11:59:04.259Z,32.38
2022-09-16T12:01:39.971Z,32.23
2022-09-16T12:04:27.084Z,32.07
2022-09-16T12:07:13.661Z,32.02
2022-09-16T12:09:45.341Z,32.05
2022-09-16T12:12:14.827Z,32.04
2022-09-16T12:14:44.011Z,31.97
2022-09-16T12:17:24.594Z,31.91
2022-09-16T12:20:12.375Z,31.87
2022-09-16T12:22:49.569Z,31.77
2022-09-16T12:25:22.658Z,31.62
2022-09-16T12:27:58.108Z,31.45
2022-09-16T12:30:31.208Z,31.42
2022-09-16T12:33:06.553Z,31.49
2022-09-16T12:35:34.901Z,31.63
2022-09-16T12:38:01.986Z,31.80
2022-09-16T12:40:50.649Z,31.90
2022-09-16T12:43:37.155Z,32.03
2022-09-16T12:46:07.307Z,32.13
2022-09-16T12:48:52.964Z,32.16
2022-09-16T12:52:11.117Z,32.26
2022-09-16T12:55:14.400Z,32.33
2022-09-16T12:58:00.524Z,32.35
2022-09-16T13:00:41.878Z,32.32
2022-09-16T13:03:17.463Z,32.29
2022-09-16T13:05:47.991Z,32.25
2022-09-16T13:08:27.840Z,32.17
2022-09-16T13:11:20.935Z,32.04
2022-09-16T13:14:03.826Z,31.95
2022-09-16T13:16:36.097Z,31.94
2022-09-16T13:19:22.209Z,31.97
2022-09-16T13:21:49.917Z,31.94
2022-09-16T13:24:45.150Z,31.93
2022-09-16T13:27:32.950Z,31.95
2022-09-16T13:30:09.895Z,31.89
2022-09-16T13:32:41.044Z,31.83
2022-09-16T13:35:21.353Z,31.82
2022-09-16T13:37:49.281Z,31.80
2022-09-16T13:40:30.762Z,31.72
2022-09-16T13:43:10.100Z,31.60
2022-09-16T13:45:38.060Z,31.53
2022-09-16T13:48:17.294Z,31.44
2022-09-16T13:50:48.859Z,31.32
2022-09-16T13:53:21.447Z,31.21
2022-09-16T13:55:49.135Z,31.08
2022-09-16T13:58:30.795Z,30.91
2022-09-16T14:01:13.185Z,30.80
2022-09-16T14:04:20.900Z,30.75
2022-09-16T14:06:53.683Z,30.74
2022-09-16T14:09:29.904Z,30.69
2022-09-16T14:12:05.281Z,30.55
2022-09-16T14:14:48.653Z,30.43
2022-09-16T14:17:27.706Z,30.38
2022-09-16T14:19:59.831Z,30.34
2022-09-16T14:22:28.251Z,30.29
2022-09-16T14:25:06.850Z,30.24
2022-09-16T14:27:44.407Z,30.17
2022-09-16T14:30:18.655Z,30.10
2022-09-16T14:32:46.733Z,30.06
2022-09-16T14:35:24.578Z,30.04
2022-09-16T14:37:56.153Z,30.02
2022-09-16T14:40:24.251Z,29.90
2022-09-16T14:43:00.433Z,29.72
2022-09-16T14:45:28.203Z,29.54
2022-09-16T14:47:55.667Z,29.39
2022-09-16T14:50:27.918Z,29.24
2022-09-16T14:52:57.859Z,29.12
2022-09-16T14:55:36.325Z,28.98
2022-09-16T14:58:03.844Z,28.86
2022-09-16T15:01:02.134Z,28.76
2022-09-16T15:03:38.402Z,28.64
2022-09-16T15:06:07.940Z,28.55
2022-09-16T15:08:55.656Z,28.47
2022-09-16T15:11:46.569Z,28.37
2022-09-16T15:14:11.462Z,28.29
2022-09-16T15:16:44.776Z,28.19
2022-09-16T15:19:34.669Z,28.08
2022-09-16T15:22:02.204Z,27.97
2022-09-16T15:24:34.071Z,27.93
2022-09-16T15:27:01.022Z,27.91
2022-09-16T15:29:33.395Z,27.88
2022-09-16T15:32:15.321Z,27.85
2022-09-16T15:34:44.056Z,27.78
2022-09-16T15:37:49.652Z,27.69
2022-09-16T15:40:42.717Z,27.60
2022-09-16T15:43:15.832Z,27.52
2022-09-16T15:45:43.889Z,27.44
2022-09-16T15:48:20.984Z,27.35
2022-09-16T15:50:56.783Z,27.25
2022-09-16T15:53:30.031Z,27.15
2022-09-16T15:55:57.388Z,27.07
2022-09-16T15:58:33.453Z,26.96
2022-09-16T16:01:03.172Z,26.85
2022-09-16T16:03:45.585Z,26.75
2022-09-16T16:06:13.185Z,26.65
2022-09-16T16:08:43.766Z,26.55
2022-09-16T16:11:12.881Z,26.43
2022-09-16T16:13:40.756Z,26.31
2022-09-16T16:16:08.584Z,26.17
2022-09-16T16:18:36.501Z,26.05
2022-09-16T16:21:13.146Z,25.91
2022-09-16T16:23:40.129Z,25.79
2022-09-16T16:26:08.123Z,25.69
2022-09-16T16:28:36.580Z,25.59
2022-09-16T16:31:13.003Z,25.50
2022-09-16T16:33:48.802Z,25.42
2022-09-16T16:36:16.777Z,25.33
2022-09-16T16:38:47.197Z,25.27
2022-09-16T16:41:22.742Z,25.23
2022-09-16T16:43:50.059Z,25.19
2022-09-16T16:46:18.064Z,25.17
2022-09-16T16:48:45.114Z,25.11
2022-09-16T16:51:13.389Z,25.05
2022-09-16T16:53:41.524Z,24.99
2022-09-16T16:56:14.842Z,24.92
2022-09-16T16:58:45.900Z,24.85
2022-09-16T17:01:19.852Z,24.79
2022-09-16T17:03:50.429Z,24.72
2022-09-16T17:06:17.888Z,24.63
2022-09-16T17:08:44.832Z,24.56
2022-09-16T17:11:12.084Z,24.52
2022-09-16T17:13:40.871Z,24.49
2022-09-16T17:16:08.565Z,24.46
2022-09-16T17:18:36.810Z,24.41
2022-09-16T17:21:09.489Z,24.35
2022-09-16T17:23:36.308Z,24.30
2022-09-16T17:26:03.723Z,24.26
2022-09-16T17:28:30.525Z,24.19
2022-09-16T17:30:58.100Z,24.13
2022-09-16T17:33:26.039Z,24.04
2022-09-16T17:36:03.940Z,23.95
2022-09-16T17:38:30.809Z,23.84
2022-09-16T17:41:16.802Z,23.75
2022-09-16T17:43:44.782Z,23.64
2022-09-16T17:46:16.504Z,23.55
2022-09-16T17:48:44.005Z,23.47
2022-09-16T17:51:11.061Z,23.39
2022-09-16T17:53:38.280Z,23.31
2022-09-16T17:56:11.742Z,23.24
2022-09-16T17:58:40.705Z,23.15
2022-09-16T18:01:10.052Z,23.07
2022-09-16T18:03:37.386Z,22.97
2022-09-16T18:06:10.383Z,22.88
2022-09-16T18:08:37.540Z,22.80
2022-09-16T18:11:05.055Z,22.71
2022-09-16T18:13:33.499Z,22.63
2022-09-16T18:16:10.744Z,22.55
2022-09-16T18:18:39.322Z,22.45
2022-09-16T18:21:10.480Z,22.36
2022-09-16T18:23:38.614Z,22.28
2022-09-16T18:26:06.993Z,22.22
2022-09-16T18:28:58.291Z,22.17
2022-09-16T18:31:25.583Z,22.11
2022-09-16T18:33:56.042Z,22.07
2022-09-16T18:36:25.481Z,22.01
2022-09-16T18:38:53.535Z,21.94
2022-09-16T18:41:25.375Z,21.90
2022-09-16T18:43:55.346Z,21.85
2022-09-16T18:46:27.076Z,21.79
2022-09-16T18:48:54.043Z,21.75
2022-09-16T18:51:24.455Z,21.71
2022-09-16T18:53:52.254Z,21.68
2022-09-16T18:56:21.541Z,21.62
2022-09-16T18:59:16.838Z,21.59
2022-09-16T19:01:38.144Z,21.57
2022-09-16T19:04:06.646Z,21.51
2022-09-16T19:06:38.246Z,21.46
2022-09-16T19:09:06.720Z,21.43
2022-09-16T19:11:34.407Z,21.40
2022-09-16T19:14:02.056Z,21.36
2022-09-16T19:16:28.907Z,21.32
2022-09-16T19:18:56.678Z,21.29
2022-09-16T19:21:23.974Z,21.28
2022-09-16T19:24:00.429Z,21.25
2022-09-16T19:26:31.142Z,21.22
2022-09-16T19:28:58.725Z,21.19
2022-09-16T19:31:25.933Z,21.17
2022-09-16T19:33:54.235Z,21.16
2022-09-16T19:36:24.808Z,21.17
2022-09-16T19:38:52.246Z,21.16
2022-09-16T19:41:20.527Z,21.14
2022-09-16T19:43:47.623Z,21.11
2022-09-16T19:46:17.159Z,21.07
2022-09-16T19:48:46.367Z,21.02
2022-09-16T19:51:14.530Z,20.98
2022-09-16T19:53:42.305Z,20.95
2022-09-16T19:56:14.279Z,20.94
2022-09-16T19:58:41.329Z,20.91
2022-09-16T20:01:10.616Z,20.90
2022-09-16T20:03:39.184Z,20.89
2022-09-16T20:06:13.154Z,20.88
2022-09-16T20:08:41.156Z,20.88
2022-09-16T20:11:13.864Z,20.82
2022-09-16T20:13:41.199Z,20.73
2022-09-16T20:16:08.879Z,20.65
2022-09-16T20:18:36.331Z,20.64
2022-09-16T20:21:07.722Z,20.60
2022-09-16T20:23:34.634Z,20.50
2022-09-16T20:26:06.499Z,20.41
2022-09-16T20:28:35.147Z,20.34
2022-09-16T20:31:02.352Z,20.28
2022-09-16T20:33:33.267Z,20.26
2022-09-16T20:36:11.812Z,20.24
2022-09-16T20:38:39.986Z,20.23
2022-09-16T20:41:08.501Z,20.23
2022-09-16T20:43:35.533Z,20.24
2022-09-16T20:46:15.685Z,20.26
2022-09-16T20:48:42.743Z,20.26
2022-09-16T20:51:11.951Z,20.22
2022-09-16T20:53:40.306Z,20.16
2022-09-16T20:56:10.282Z,20.10
2022-09-16T20:58:37.507Z,20.01
2022-09-16T21:01:20.768Z,19.97
2022-09-16T21:03:51.476Z,19.94
2022-09-16T21:06:18.731Z,19.93
2022-09-16T21:08:45.783Z,19.92
2022-09-16T21:11:13.587Z,19.94
2022-09-16T21:13:41.638Z,19.97
2022-09-16T21:16:10.298Z,20.03
2022-09-16T21:18:37.196Z,20.05
2022-09-16T21:21:09.246Z,20.08
2022-09-16T21:23:36.197Z,20.14
2022-09-16T21:26:16.672Z,20.20
2022-09-16T21:28:44.956Z,20.28
2022-09-16T21:31:13.699Z,20.31
2022-09-16T21:33:41.928Z,20.33
2022-09-16T21:36:11.409Z,20.36
2022-09-16T21:38:38.812Z,20.40
2022-09-16T21:41:09.498Z,20.41
2022-09-16T21:43:49.672Z,20.41
2022-09-16T21:46:19.378Z,20.42
2022-09-16T21:48:50.474Z,20.43
2022-09-16T21:51:19.396Z,20.45
2022-09-16T21:53:46.571Z,20.49
2022-09-16T21:56:18.499Z,20.54
2022-09-16T21:58:45.357Z,20.59
2022-09-16T22:01:16.958Z,20.65
2022-09-16T22:03:45.265Z,20.70
2022-09-16T22:06:13.277Z,20.73
2022-09-16T22:08:40.123Z,20.76
2022-09-16T22:11:09.126Z,20.78
2022-09-16T22:13:36.850Z,20.81
2022-09-16T22:16:04.814Z,20.85
2022-09-16T22:18:32.021Z,20.88
2022-09-16T22:21:03.171Z,20.90
2022-09-16T22:23:30.535Z,20.92
2022-09-16T22:25:58.519Z,20.94
2022-09-16T22:28:25.261Z,20.95
2022-09-16T22:30:52.008Z,20.96
2022-09-16T22:33:19.060Z,20.97
2022-09-16T22:35:46.130Z,20.98
2022-09-16T22:38:13.677Z,20.96
2022-09-16T22:40:41.028Z,20.95
2022-09-16T22:43:07.770Z,20.95
2022-09-16T22:45:34.717Z,20.93
2022-09-16T22:48:01.661Z,20.92
2022-09-16T22:50:28.405Z,20.93
2022-09-16T22:52:55.873Z,20.94
2022-09-16T22:55:23.233Z,20.93
2022-09-16T22:57:50.084Z,20.93
2022-09-16T23:00:16.926Z,20.93
2022-09-16T23:02:43.644Z,20.92
2022-09-16T23:05:10.899Z,20.92
2022-09-16T23:07:38.937Z,20.94
2022-09-16T23:10:10.444Z,20.93
2022-09-16T23:12:37.553Z,20.93
2022-09-16T23:15:06.144Z,20.92
2022-09-16T23:17:32.891Z,20.93
2022-09-16T23:20:00.157Z,20.94
2022-09-16T23:22:27.616Z,20.92
2022-09-16T23:24:54.372Z,20.89
2022-09-16T23:27:21.112Z,20.86
2022-09-16T23:29:48.167Z,20.84
2022-09-16T23:32:15.535Z,20.84
2022-09-16T23:34:42.894Z,20.85
2022-09-16T23:37:09.751Z,20.86
2022-09-16T23:39:36.900Z,20.88
2022-09-16T23:42:03.855Z,20.89
2022-09-16T23:44:31.525Z,20.90
2022-09-16T23:46:59.199Z,20.91
2022-09-16T23:49:26.036Z,20.92
2022-09-16T23:51:52.780Z,20.94
2022-09-16T23:54:20.349Z,20.94
2022-09-16T23:56:47.712Z,20.95
2022-09-16T23:59:15.381Z,20.93
